Time;durP1;ratioP1;P1;durP2;ratioP2;P2;SDS_P1;SDS_P2;PMS_P1;PMS_P2;Temp;Humidity;BMP_temperature;BMP_pressure;BME280_temperature;BME280_humidity;BME280_pressure;Samples;Min_cycle;Max_cycle;Signal;HPM_P1;HPM_P2
2023/05/02 00:01:55;;;;;;;8.05;2.45;;;;;;;8.32;70.10;100473.72;4986080;28;20053;-74
2023/05/02 00:04:22;;;;;;;9.65;1.90;;;;;;;8.32;70.35;100466.75;4985786;28;20061;-74
2023/05/02 00:06:51;;;;;;;7.00;2.03;;;;;;;8.34;70.42;100471.97;4987712;28;20042;-73
2023/05/02 00:09:18;;;;;;;7.80;1.85;;;;;;;8.34;70.02;100480.63;4985913;28;20050;-75
2023/05/02 00:11:45;;;;;;;7.95;1.98;;;;;;;8.34;69.89;100480.63;4987550;28;20085;-74
2023/05/02 00:14:12;;;;;;;7.13;2.35;;;;;;;8.36;70.35;100479.72;4988129;28;20442;-73
2023/05/02 00:16:39;;;;;;;3.13;1.20;;;;;;;8.36;70.41;100471.91;4985143;28;20042;-74
2023/05/02 00:19:06;;;;;;;3.95;0.80;;;;;;;8.34;70.14;100471.97;4984267;28;20047;-74
2023/05/02 00:21:33;;;;;;;2.25;0.50;;;;;;;8.33;70.20;100468.47;4988432;28;20157;-74
2023/05/02 00:24:02;;;;;;;1.15;0.28;;;;;;;8.34;70.25;100470.22;4987371;28;20046;-73
2023/05/02 00:26:28;;;;;;;3.20;0.30;;;;;;;8.36;70.51;100466.72;4986325;28;20038;-73
2023/05/02 00:28:55;;;;;;;0.20;0.20;;;;;;;8.34;70.13;100470.22;4986419;28;20061;-74
2023/05/02 00:31:22;;;;;;;0.20;0.10;;;;;;;8.36;70.52;100461.50;4984186;28;20054;-74
2023/05/02 00:33:49;;;;;;;0.20;0.20;;;;;;;8.35;70.13;100468.47;4988135;28;20053;-74
2023/05/02 00:36:17;;;;;;;0.20;0.10;;;;;;;8.34;70.59;100462.41;4984396;28;20052;-74
2023/05/02 00:38:44;;;;;;;0.85;0.13;;;;;;;8.33;70.29;100463.25;4984855;28;20053;-73
2023/05/02 00:41:13;;;;;;;0.30;0.10;;;;;;;8.36;70.05;100466.72;4982052;28;20126;-73
2023/05/02 00:43:40;;;;;;;0.10;0.00;;;;;;;8.36;70.15;100461.50;4988977;28;20050;-74
2023/05/02 00:46:07;;;;;;;0.80;0.00;;;;;;;8.33;70.00;100463.25;4986398;28;20075;-74
2023/05/02 00:48:35;;;;;;;0.00;0.00;;;;;;;8.33;70.22;100462.41;4986760;28;20108;-73
2023/05/02 00:51:04;;;;;;;0.00;0.00;;;;;;;8.32;70.02;100460.69;4988437;28;20050;-73
2023/05/02 00:53:31;;;;;;;1.35;0.00;;;;;;;8.30;70.15;100458.09;4981868;28;21426;-74
2023/05/02 00:55:59;;;;;;;0.00;0.00;;;;;;;8.29;70.06;100456.41;4985740;28;20065;-74
2023/05/02 00:58:28;;;;;;;0.00;0.00;;;;;;;8.28;69.80;100454.69;4983453;28;20514;-74
2023/05/02 01:01:08;;;;;;;0.00;0.00;;;;;;;8.28;69.81;100449.47;4988827;28;20050;-75
2023/05/02 01:03:42;;;;;;;0.00;0.00;;;;;;;8.27;69.59;100460.75;4982336;28;20430;-74
2023/05/02 01:06:25;;;;;;;0.00;0.00;;;;;;;8.28;69.77;100459.91;4987250;28;20046;-74
2023/05/02 01:09:00;;;;;;;1.08;0.05;;;;;;;8.27;69.54;100457.28;4986134;28;20057;-74
2023/05/02 01:11:36;;;;;;;0.00;0.00;;;;;;;8.26;69.96;100453.84;4984558;28;20042;-74
2023/05/02 01:14:08;;;;;;;0.05;0.00;;;;;;;8.25;69.72;100462.53;4983198;28;20058;-74
2023/05/02 01:16:40;;;;;;;0.00;0.00;;;;;;;8.25;69.67;100457.34;4987900;28;20051;-74
2023/05/02 01:19:12;;;;;;;0.00;0.00;;;;;;;8.24;69.54;100458.19;4985405;28;20530;-74
2023/05/02 01:21:40;;;;;;;0.10;0.00;;;;;;;8.22;69.53;100454.75;4987566;28;20050;-74
2023/05/02 01:24:13;;;;;;;0.00;0.00;;;;;;;8.20;69.77;100446.13;4983431;28;20049;-74
2023/05/02 01:26:50;;;;;;;0.00;0.00;;;;;;;8.22;69.12;100449.53;4983527;28;20050;-73
2023/05/02 01:29:20;;;;;;;0.95;0.28;;;;;;;8.21;69.25;100447.84;4980049;28;20054;-73
2023/05/02 01:31:50;;;;;;;0.00;0.00;;;;;;;8.20;69.35;100451.31;4986408;28;20549;-74
2023/05/02 01:34:20;;;;;;;0.00;0.00;;;;;;;8.20;69.25;100453.06;4983519;28;20051;-74
2023/05/02 01:36:50;;;;;;;0.00;0.00;;;;;;;8.18;69.26;100453.09;4987525;28;20049;-74
2023/05/02 01:39:20;;;;;;;0.10;0.00;;;;;;;8.17;69.69;100460.91;4982520;28;20046;-74
2023/05/02 01:41:52;;;;;;;0.10;0.00;;;;;;;8.15;69.43;100457.47;4986783;28;20085;-73
2023/05/02 01:44:23;;;;;;;0.00;0.00;;;;;;;8.14;69.30;100459.22;4987842;28;20084;-74
2023/05/02 01:46:51;;;;;;;0.00;0.00;;;;;;;8.12;69.61;100463.56;4985737;28;20054;-74
2023/05/02 01:49:20;;;;;;;0.00;0.00;;;;;;;8.11;69.48;100460.13;4984773;28;20057;-73
2023/05/02 01:51:49;;;;;;;0.00;0.00;;;;;;;8.10;69.38;100466.19;4985228;28;20079;-74
2023/05/02 01:54:18;;;;;;;0.13;0.10;;;;;;;8.08;69.18;100469.69;4987055;28;20050;-74
2023/05/02 01:56:46;;;;;;;0.57;0.00;;;;;;;8.06;69.34;100474.06;4986446;28;20069;-74
2023/05/02 01:59:17;;;;;;;0.00;0.00;;;;;;;8.03;69.35;100474.97;4981142;28;20129;-74
2023/05/02 02:01:45;;;;;;;0.13;0.10;;;;;;;8.03;69.25;100477.56;4985067;28;20057;-74
2023/05/02 02:04:15;;;;;;;0.00;0.00;;;;;;;8.00;69.06;100474.16;4984039;28;20080;-74
2023/05/02 02:06:46;;;;;;;0.10;0.00;;;;;;;7.99;69.19;100469.81;4983050;28;20561;-73
2023/05/02 02:09:14;;;;;;;0.10;0.00;;;;;;;7.95;69.10;100474.19;4985715;28;20047;-74
2023/05/02 02:11:46;;;;;;;0.00;0.00;;;;;;;7.93;68.68;100483.75;4985148;28;20057;-74
2023/05/02 02:14:20;;;;;;;0.00;0.00;;;;;;;7.89;68.81;100476.88;4984774;28;20054;-74
2023/05/02 02:16:51;;;;;;;0.00;0.00;;;;;;;7.89;68.71;100477.72;4986041;28;20065;-73
2023/05/02 02:19:18;;;;;;;0.00;0.00;;;;;;;7.87;68.61;100481.22;4984096;28;20042;-74
2023/05/02 02:21:48;;;;;;;0.22;0.03;;;;;;;7.84;68.40;100479.53;4983839;28;20056;-74
2023/05/02 02:24:17;;;;;;;0.10;0.00;;;;;;;7.81;68.49;100478.72;4986464;28;20490;-73
2023/05/02 02:26:45;;;;;;;0.00;0.00;;;;;;;7.76;68.40;100470.94;4987167;28;20047;-74
2023/05/02 02:29:12;;;;;;;0.05;0.00;;;;;;;7.70;68.41;100473.63;4991464;28;20050;-69
2023/05/02 02:31:39;;;;;;;0.00;0.00;;;;;;;7.68;67.90;100475.38;4988046;28;20049;-69
2023/05/02 02:34:07;;;;;;;0.00;0.00;;;;;;;7.63;67.83;100485.00;4986606;28;20077;-69
2023/05/02 02:36:42;;;;;;;0.10;0.00;;;;;;;7.59;68.04;100493.69;4984369;28;20495;-69
2023/05/02 02:39:22;;;;;;;0.10;0.00;;;;;;;7.53;67.93;100494.59;4988388;28;20042;-69
2023/05/02 02:42:02;;;;;;;0.10;0.00;;;;;;;7.50;67.74;100509.38;4989056;28;20510;-69
2023/05/02 02:44:40;;;;;;;0.08;0.00;;;;;;;7.44;67.71;100505.09;4986295;28;20054;-75
2023/05/02 02:47:11;;;;;;;0.10;0.00;;;;;;;7.41;67.50;100510.34;4989519;28;20054;-75
2023/05/02 02:49:48;;;;;;;0.00;0.00;;;;;;;7.36;68.08;100509.50;4990963;28;20038;-75
2023/05/02 02:52:22;;;;;;;0.25;0.00;;;;;;;7.33;67.89;100510.41;4990044;28;20046;-75
2023/05/02 02:54:55;;;;;;;0.10;0.00;;;;;;;7.30;67.59;100506.97;4989302;28;20105;-75
2023/05/02 02:57:28;;;;;;;0.28;0.00;;;;;;;7.26;67.65;100508.75;4990730;28;20042;-75
2023/05/02 03:00:16;;;;;;;0.20;0.10;;;;;;;7.22;67.52;100518.28;4988740;28;21472;-75
2023/05/02 03:02:46;;;;;;;0.50;0.10;;;;;;;7.19;67.76;100527.84;4988689;28;20139;-75
2023/05/02 03:05:15;;;;;;;0.00;0.00;;;;;;;7.16;67.72;100535.66;4988752;28;20052;-76
2023/05/02 03:07:42;;;;;;;0.10;0.00;;;;;;;7.13;67.84;100533.09;4990062;28;20126;-74
2023/05/02 03:10:10;;;;;;;0.10;0.10;;;;;;;7.09;67.36;100532.28;4989232;28;20065;-75
2023/05/02 03:12:38;;;;;;;0.10;0.00;;;;;;;7.06;67.50;100534.91;4988076;28;20726;-75
2023/05/02 03:15:24;;;;;;;0.25;0.00;;;;;;;7.02;67.75;100540.09;4986208;28;20760;-75
2023/05/02 03:17:51;;;;;;;0.10;0.00;;;;;;;6.95;67.42;100545.34;4989048;28;20046;-75
2023/05/02 03:20:19;;;;;;;0.00;0.00;;;;;;;6.94;67.41;100553.16;4988446;28;20050;-76
2023/05/02 03:22:46;;;;;;;0.00;0.00;;;;;;;6.89;67.42;100539.34;4989491;28;20499;-75
2023/05/02 03:25:13;;;;;;;0.10;0.00;;;;;;;6.86;67.69;100540.22;4987860;28;20049;-75
2023/05/02 03:27:40;;;;;;;0.10;0.00;;;;;;;6.83;67.67;100542.84;4988524;28;20058;-75
2023/05/02 03:30:08;;;;;;;1.25;0.08;;;;;;;6.82;67.45;100555.84;4988691;28;20421;-75
2023/05/02 03:32:35;;;;;;;0.70;0.08;;;;;;;6.80;67.44;100553.22;4986240;28;20050;-75
2023/05/02 03:35:02;;;;;;;1.30;0.00;;;;;;;6.76;67.57;100561.94;4988192;28;20042;-75
2023/05/02 03:37:31;;;;;;;0.40;0.00;;;;;;;6.75;67.36;100570.59;4985880;28;20057;-75
2023/05/02 03:39:57;;;;;;;0.38;0.00;;;;;;;6.69;67.34;100581.03;4987701;28;20054;-74
2023/05/02 03:42:24;;;;;;;0.00;0.00;;;;;;;6.68;67.32;100584.47;4990017;28;20930;-75
2023/05/02 03:44:53;;;;;;;1.30;0.00;;;;;;;6.65;67.24;100584.47;4987946;28;20053;-75
2023/05/02 03:47:20;;;;;;;0.32;0.00;;;;;;;6.62;67.03;100585.38;4989681;28;20046;-75
2023/05/02 03:49:47;;;;;;;0.63;0.00;;;;;;;6.59;67.22;100590.56;4984971;28;20058;-76
2023/05/02 03:52:13;;;;;;;0.10;0.10;;;;;;;6.58;67.34;100598.38;4987243;28;20137;-75
2023/05/02 03:54:42;;;;;;;1.38;0.00;;;;;;;6.53;67.21;100596.66;4990274;28;20734;-75
2023/05/02 03:57:09;;;;;;;0.30;0.00;;;;;;;6.52;67.27;100594.94;4989037;28;20168;-75
2023/05/02 03:59:40;;;;;;;0.05;0.00;;;;;;;6.50;67.50;100596.66;4987898;28;20038;-75
2023/05/02 04:02:07;;;;;;;0.00;0.00;;;;;;;6.49;67.61;100602.75;4987472;28;20134;-75
2023/05/02 04:04:35;;;;;;;0.10;0.00;;;;;;;6.47;67.19;100601.88;4988233;28;20105;-76
2023/05/02 04:07:01;;;;;;;0.00;0.00;;;;;;;6.45;67.32;100597.56;4989877;28;20046;-76
2023/05/02 04:09:29;;;;;;;0.00;0.00;;;;;;;6.43;67.20;100595.00;4987747;28;20042;-76
2023/05/02 04:11:57;;;;;;;0.03;0.00;;;;;;;6.42;67.36;100593.25;4988724;28;20050;-75
2023/05/02 04:14:24;;;;;;;0.00;0.00;;;;;;;6.38;67.47;100596.72;4986365;28;20415;-74
2023/05/02 04:16:51;;;;;;;0.20;0.00;;;;;;;6.34;67.34;100605.38;4985163;28;20072;-75
2023/05/02 04:19:18;;;;;;;2.90;0.00;;;;;;;6.31;67.62;100608.00;4986953;28;20419;-75
2023/05/02 04:21:46;;;;;;;0.10;0.00;;;;;;;6.30;67.63;100612.31;4988474;28;20050;-75
2023/05/02 04:24:13;;;;;;;0.00;0.00;;;;;;;6.26;67.55;100612.31;4986014;28;20053;-75
2023/05/02 04:26:40;;;;;;;0.10;0.08;;;;;;;6.25;67.56;100623.56;4986593;28;20145;-74
2023/05/02 04:29:08;;;;;;;0.00;0.00;;;;;;;6.23;67.54;100633.09;4986132;28;20042;-77
2023/05/02 04:31:36;;;;;;;0.55;0.00;;;;;;;6.23;67.50;100633.09;4987537;28;20042;-74
2023/05/02 04:34:04;;;;;;;0.10;0.10;;;;;;;6.20;67.56;100633.97;4986355;28;20046;-73
2023/05/02 04:36:30;;;;;;;0.00;0.00;;;;;;;6.18;67.57;100630.53;4984507;28;20740;-75
2023/05/02 04:38:57;;;;;;;0.03;0.03;;;;;;;6.16;67.67;100639.19;4978143;28;20161;-74
2023/05/02 04:41:24;;;;;;;0.30;0.00;;;;;;;6.13;67.60;100641.78;4990080;28;20050;-75
2023/05/02 04:43:51;;;;;;;0.13;0.10;;;;;;;6.11;67.49;100639.19;4987490;28;20046;-74
2023/05/02 04:46:20;;;;;;;1.35;0.05;;;;;;;6.09;67.46;100640.94;4985706;28;20511;-74
2023/05/02 04:48:47;;;;;;;0.00;0.00;;;;;;;6.08;67.57;100646.97;4987808;28;20877;-75
2023/05/02 04:51:13;;;;;;;0.05;0.05;;;;;;;6.04;67.37;100638.34;4986549;28;20430;-74
2023/05/02 04:53:40;;;;;;;0.00;0.00;;;;;;;6.01;67.23;100648.72;4986843;28;20054;-75
2023/05/02 04:56:08;;;;;;;0.10;0.10;;;;;;;5.97;67.35;100641.78;4985355;28;20064;-74
2023/05/02 04:58:35;;;;;;;0.10;0.10;;;;;;;5.96;67.42;100655.63;4985425;28;20050;-73
2023/05/02 05:01:02;;;;;;;0.10;0.10;;;;;;;5.89;67.61;100651.31;4982627;28;20462;-74
2023/05/02 05:03:31;;;;;;;0.00;0.00;;;;;;;5.93;67.45;100675.50;4984569;28;20049;-74
2023/05/02 05:05:58;;;;;;;0.10;0.03;;;;;;;5.91;67.46;100672.88;4985722;28;20070;-74
2023/05/02 05:08:26;;;;;;;1.27;0.10;;;;;;;5.90;67.36;100675.50;4987325;28;20049;-74
2023/05/02 05:10:53;;;;;;;0.10;0.10;;;;;;;5.86;67.64;100677.19;4984767;28;20478;-74
2023/05/02 05:13:20;;;;;;;0.00;0.00;;;;;;;5.87;67.54;100676.34;4986730;28;20061;-75
2023/05/02 05:15:48;;;;;;;0.10;0.05;;;;;;;5.83;67.44;100670.31;4988566;28;20046;-74
2023/05/02 05:18:15;;;;;;;0.10;0.10;;;;;;;5.85;67.59;100678.06;4983176;28;20046;-74
2023/05/02 05:20:43;;;;;;;0.28;0.10;;;;;;;5.82;67.48;100684.13;4987549;28;20066;-76
2023/05/02 05:23:10;;;;;;;0.10;0.10;;;;;;;5.80;67.13;100682.41;4988089;28;20047;-75
2023/05/02 05:25:37;;;;;;;0.15;0.15;;;;;;;5.77;67.23;100685.00;4986114;28;20587;-75
2023/05/02 05:28:03;;;;;;;0.10;0.10;;;;;;;5.72;67.15;100697.09;4988030;28;20069;-74
2023/05/02 05:30:31;;;;;;;0.20;0.10;;;;;;;5.69;67.31;100691.91;4984760;28;20045;-74
2023/05/02 05:32:58;;;;;;;0.10;0.10;;;;;;;5.69;67.47;100691.91;4988584;28;20058;-75
2023/05/02 05:35:25;;;;;;;0.10;0.10;;;;;;;5.68;67.49;100705.72;4985212;28;20050;-74
2023/05/02 05:37:53;;;;;;;0.65;0.10;;;;;;;5.67;67.42;100698.84;4984874;28;20057;-75
2023/05/02 05:40:21;;;;;;;0.30;0.20;;;;;;;5.63;67.46;100696.25;4987526;28;20050;-75
2023/05/02 05:42:48;;;;;;;0.73;0.13;;;;;;;5.65;67.76;100706.59;4986176;28;20121;-75
2023/05/02 05:45:16;;;;;;;0.30;0.10;;;;;;;5.66;67.50;100712.63;4986838;28;20061;-75
2023/05/02 05:47:42;;;;;;;1.05;0.20;;;;;;;5.63;67.87;100719.56;4987400;28;20058;-74
2023/05/02 05:50:10;;;;;;;0.35;0.10;;;;;;;5.64;67.51;100721.28;4986847;28;20047;-74
2023/05/02 05:52:37;;;;;;;0.30;0.20;;;;;;;5.64;67.84;100723.00;4985859;28;20101;-74
2023/05/02 05:55:06;;;;;;;3.95;0.22;;;;;;;5.64;67.58;100723.00;4984078;28;20050;-74
2023/05/02 05:57:33;;;;;;;0.40;0.20;;;;;;;5.64;67.68;100731.66;4985220;28;20057;-74
2023/05/02 06:00:00;;;;;;;0.85;0.30;;;;;;;5.66;67.75;100733.38;4987355;28;20593;-74
2023/05/02 06:02:27;;;;;;;0.38;0.20;;;;;;;5.65;67.76;100735.09;4989687;28;20137;-74
2023/05/02 06:04:54;;;;;;;0.40;0.20;;;;;;;5.66;67.90;100738.53;4992099;28;20051;-74
2023/05/02 06:07:20;;;;;;;0.70;0.25;;;;;;;5.67;67.89;100740.28;4987305;28;20050;-74
2023/05/02 06:09:47;;;;;;;1.05;0.30;;;;;;;5.66;67.94;100736.81;4989637;28;20061;-75
2023/05/02 06:12:16;;;;;;;0.80;0.70;;;;;;;5.62;67.92;100740.28;4991021;28;20046;-74
2023/05/02 06:14:43;;;;;;;0.30;0.30;;;;;;;5.68;68.00;100752.38;4986095;28;20051;-74
2023/05/02 06:17:10;;;;;;;0.55;0.30;;;;;;;5.68;68.09;100753.25;4989368;28;20050;-75
2023/05/02 06:19:37;;;;;;;0.40;0.22;;;;;;;5.70;67.86;100756.72;4991266;28;20050;-74
2023/05/02 06:22:03;;;;;;;0.43;0.28;;;;;;;5.71;67.95;100757.56;4989507;28;20050;-75
2023/05/02 06:24:31;;;;;;;0.40;0.30;;;;;;;5.73;67.84;100768.81;4989169;28;20051;-74
2023/05/02 06:26:58;;;;;;;0.30;0.20;;;;;;;5.73;67.76;100771.41;4990454;28;20050;-74
2023/05/02 06:29:27;;;;;;;3.35;0.30;;;;;;;5.74;67.67;100775.72;4989604;28;20050;-74
2023/05/02 06:31:55;;;;;;;0.70;0.30;;;;;;;5.73;67.79;100780.03;4988408;28;20502;-75
2023/05/02 06:34:22;;;;;;;0.40;0.30;;;;;;;5.73;67.65;100777.44;4988625;28;20054;-75
2023/05/02 06:36:53;;;;;;;0.45;0.45;;;;;;;5.73;67.60;100781.75;4988850;28;20515;-74
2023/05/02 06:39:20;;;;;;;0.85;0.28;;;;;;;5.73;67.66;100794.72;4988028;28;20046;-75
2023/05/02 06:41:48;;;;;;;0.30;0.20;;;;;;;5.73;67.42;100793.00;4986273;28;20501;-75
2023/05/02 06:44:15;;;;;;;0.73;0.30;;;;;;;5.74;67.76;100793.84;4988804;28;20100;-74
2023/05/02 06:46:43;;;;;;;0.30;0.30;;;;;;;5.73;67.71;100799.91;4989473;28;20053;-75
2023/05/02 06:49:10;;;;;;;0.43;0.30;;;;;;;5.72;67.72;100805.94;4987793;28;20403;-74
2023/05/02 06:51:37;;;;;;;1.55;0.20;;;;;;;5.73;67.71;100812.88;4988351;28;20046;-74
2023/05/02 06:54:04;;;;;;;2.83;0.30;;;;;;;5.73;67.51;100818.06;4988861;28;20046;-75
2023/05/02 06:56:31;;;;;;;0.28;0.20;;;;;;;5.72;67.57;100813.72;4990914;28;20051;-75
2023/05/02 06:58:58;;;;;;;0.20;0.20;;;;;;;5.72;67.57;100818.91;4989486;28;20054;-76
2023/05/02 07:01:25;;;;;;;0.35;0.20;;;;;;;5.72;67.34;100826.66;4989141;28;20533;-75
2023/05/02 07:03:53;;;;;;;0.60;0.20;;;;;;;5.71;67.38;100830.13;4990292;28;20062;-76
2023/05/02 07:06:20;;;;;;;0.30;0.20;;;;;;;5.73;67.31;100828.41;4988122;28;20800;-74
2023/05/02 07:08:47;;;;;;;0.40;0.20;;;;;;;5.74;67.02;100835.31;4991628;28;20054;-75
2023/05/02 07:11:14;;;;;;;0.30;0.20;;;;;;;5.76;67.57;100839.66;4986177;28;20058;-76
2023/05/02 07:13:41;;;;;;;2.08;0.20;;;;;;;5.80;67.40;100840.50;4989540;28;20059;-75
2023/05/02 07:16:09;;;;;;;0.60;0.20;;;;;;;5.80;67.02;100835.34;4989558;28;20050;-75
2023/05/02 07:18:36;;;;;;;1.45;0.20;;;;;;;5.75;67.23;100835.34;4988596;28;20057;-75
2023/05/02 07:21:04;;;;;;;0.22;0.20;;;;;;;5.84;67.44;100852.63;4988033;28;20061;-75
2023/05/02 07:23:31;;;;;;;2.38;0.20;;;;;;;5.85;67.26;100851.75;4988371;28;20557;-75
2023/05/02 07:25:58;;;;;;;0.20;0.17;;;;;;;5.86;67.31;100856.06;4971689;28;20846;-75
2023/05/02 07:28:25;;;;;;;0.30;0.20;;;;;;;5.88;66.96;100862.13;4989579;28;20475;-75
2023/05/02 07:30:52;;;;;;;0.73;0.30;;;;;;;5.89;67.31;100869.06;4988390;28;20057;-76
2023/05/02 07:33:18;;;;;;;0.68;0.20;;;;;;;5.92;67.19;100876.84;4989959;28;20518;-75
2023/05/02 07:35:45;;;;;;;0.30;0.20;;;;;;;5.93;67.12;100883.78;4990363;28;20042;-76
2023/05/02 07:38:14;;;;;;;0.35;0.10;;;;;;;5.94;67.17;100895.88;4988850;28;20051;-75
2023/05/02 07:40:42;;;;;;;0.30;0.30;;;;;;;5.94;67.59;100901.06;4990338;28;20043;-75
2023/05/02 07:43:09;;;;;;;0.30;0.20;;;;;;;5.95;67.08;100905.41;4988956;28;20057;-75
2023/05/02 07:45:35;;;;;;;0.28;0.20;;;;;;;5.97;67.05;100908.00;4989588;28;20042;-75
2023/05/02 07:48:03;;;;;;;0.25;0.20;;;;;;;5.97;66.68;100910.59;4989807;28;20050;-75
2023/05/02 07:50:30;;;;;;;0.80;0.10;;;;;;;5.94;66.69;100916.63;4989530;28;20108;-75
2023/05/02 07:52:57;;;;;;;1.90;0.17;;;;;;;5.96;66.76;100916.66;4988946;28;20734;-75
2023/05/02 07:55:26;;;;;;;0.10;0.10;;;;;;;5.95;66.57;100927.84;4989246;28;20419;-75
2023/05/02 07:57:53;;;;;;;0.10;0.10;;;;;;;5.94;66.62;100937.38;4986420;28;20054;-74
2023/05/02 08:00:20;;;;;;;0.40;0.10;;;;;;;5.93;66.70;100930.47;4988327;28;20049;-75
2023/05/02 08:02:47;;;;;;;0.20;0.10;;;;;;;5.94;66.77;100936.50;4987745;28;20054;-77
2023/05/02 08:05:14;;;;;;;0.10;0.08;;;;;;;5.94;66.47;100958.09;4988683;28;20046;-76
2023/05/02 08:07:41;;;;;;;1.17;0.20;;;;;;;5.95;66.14;100958.97;4989507;28;20567;-75
2023/05/02 08:10:09;;;;;;;1.00;0.47;;;;;;;5.95;66.22;100958.97;4989012;28;20134;-75
2023/05/02 08:12:40;;;;;;;1.13;0.10;;;;;;;5.95;66.25;100974.53;4987979;28;20057;-76
2023/05/02 08:15:08;;;;;;;0.20;0.10;;;;;;;5.96;66.17;100971.97;4983188;28;20784;-75
2023/05/02 08:17:34;;;;;;;0.30;0.10;;;;;;;5.98;66.02;100975.44;4987955;28;20046;-75
2023/05/02 08:20:01;;;;;;;0.17;0.10;;;;;;;6.00;66.25;100976.28;4988542;28;20476;-76
2023/05/02 08:22:28;;;;;;;0.15;0.10;;;;;;;6.03;66.09;100991.88;4989862;28;20054;-75
2023/05/02 08:24:55;;;;;;;0.45;0.25;;;;;;;6.07;66.20;100995.34;4986342;28;20046;-75
2023/05/02 08:27:22;;;;;;;0.28;0.17;;;;;;;6.08;65.87;101000.50;4988212;28;20062;-77
2023/05/02 08:29:50;;;;;;;0.70;0.10;;;;;;;6.11;65.84;101006.59;4989009;28;20050;-75
2023/05/02 08:32:17;;;;;;;0.20;0.10;;;;;;;6.15;66.30;101013.50;4988279;28;20042;-75
2023/05/02 08:34:44;;;;;;;0.20;0.10;;;;;;;6.18;66.40;101013.53;4985918;28;20433;-74
2023/05/02 08:37:11;;;;;;;0.15;0.05;;;;;;;6.23;65.90;101020.47;4988312;28;20555;-75
2023/05/02 08:39:37;;;;;;;0.10;0.10;;;;;;;6.25;65.61;101025.66;4989524;28;20133;-76
2023/05/02 08:42:07;;;;;;;0.28;0.10;;;;;;;6.28;65.67;101041.22;4987271;28;20046;-76
2023/05/02 08:44:34;;;;;;;0.17;0.10;;;;;;;6.31;65.38;101038.63;4987521;28;20104;-75
2023/05/02 08:47:03;;;;;;;0.10;0.10;;;;;;;6.33;65.21;101044.72;4988381;28;20060;-75
2023/05/02 08:49:32;;;;;;;0.75;0.10;;;;;;;6.38;64.55;101048.19;4986198;28;20050;-76
2023/05/02 08:52:01;;;;;;;0.55;0.10;;;;;;;6.43;64.81;101049.06;4988627;28;20055;-75
2023/05/02 08:54:28;;;;;;;0.93;0.10;;;;;;;6.44;64.95;101053.41;4987992;28;20499;-75
2023/05/02 08:56:58;;;;;;;0.10;0.10;;;;;;;6.51;64.89;101070.69;4984739;28;20057;-76
2023/05/02 08:59:25;;;;;;;0.20;0.10;;;;;;;6.56;64.46;101072.47;4985763;28;20048;-76
2023/05/02 09:01:58;;;;;;;0.20;0.10;;;;;;;6.59;64.40;101062.94;4986306;28;20050;-75
2023/05/02 09:04:31;;;;;;;0.63;0.20;;;;;;;6.62;64.65;101067.28;4986095;28;20057;-75
2023/05/02 09:06:58;;;;;;;0.20;0.10;;;;;;;6.66;64.27;101079.38;4986490;28;20054;-75
2023/05/02 09:09:25;;;;;;;0.30;0.20;;;;;;;6.71;63.93;101081.13;4988740;28;20042;-76
2023/05/02 09:11:52;;;;;;;0.30;0.20;;;;;;;6.76;64.41;101086.34;4986086;28;20495;-76
2023/05/02 09:14:19;;;;;;;4.90;0.40;;;;;;;6.82;63.88;101088.94;4988387;28;20058;-75
2023/05/02 09:16:47;;;;;;;0.35;0.10;;;;;;;6.86;63.82;101098.50;4985160;28;20050;-75
2023/05/02 09:19:24;;;;;;;0.28;0.17;;;;;;;6.92;62.88;101102.84;4987851;28;20487;-74
2023/05/02 09:21:58;;;;;;;0.20;0.20;;;;;;;6.95;62.84;101095.06;4984696;28;20046;-75
2023/05/02 09:24:25;;;;;;;0.88;0.20;;;;;;;7.02;63.11;101101.97;4986732;28;20053;-74
2023/05/02 09:27:00;;;;;;;1.85;0.20;;;;;;;7.10;62.60;101115.84;4986265;28;20054;-74
2023/05/02 09:29:29;;;;;;;1.45;0.30;;;;;;;7.16;62.56;101099.38;4986309;28;20042;-74
2023/05/02 09:31:56;;;;;;;0.60;0.17;;;;;;;7.25;62.46;101111.53;4987048;28;20050;-75
2023/05/02 09:34:23;;;;;;;0.30;0.13;;;;;;;7.32;62.42;101114.13;4985476;28;20057;-74
2023/05/02 09:36:53;;;;;;;1.80;0.20;;;;;;;7.37;62.15;101122.81;4985194;28;20491;-74
2023/05/02 09:39:22;;;;;;;1.95;0.20;;;;;;;7.43;62.30;101121.94;4986134;28;20112;-74
2023/05/02 09:41:50;;;;;;;1.15;0.20;;;;;;;7.47;61.88;101125.41;4984352;28;20053;-74
2023/05/02 09:44:18;;;;;;;0.32;0.20;;;;;;;7.47;62.11;101123.66;4987649;28;20054;-74
2023/05/02 09:46:46;;;;;;;2.97;0.20;;;;;;;7.51;62.21;101125.38;4986360;28;20053;-74
2023/05/02 09:49:17;;;;;;;0.30;0.30;;;;;;;7.56;62.71;101125.38;4986701;28;20050;-75
2023/05/02 09:51:45;;;;;;;1.17;0.25;;;;;;;7.62;61.76;101122.78;4985633;28;20058;-74
2023/05/02 09:54:13;;;;;;;1.40;0.20;;;;;;;7.67;61.90;101128.84;4985802;28;20124;-74
2023/05/02 09:56:55;;;;;;;0.38;0.20;;;;;;;7.76;62.22;101131.44;4986000;28;20062;-74
2023/05/02 09:59:22;;;;;;;0.77;0.20;;;;;;;7.80;62.25;101133.19;4985478;28;20042;-74
2023/05/02 10:01:56;;;;;;;3.17;0.30;;;;;;;7.88;62.62;101136.63;4986497;28;20054;-74
2023/05/02 10:04:23;;;;;;;0.30;0.20;;;;;;;7.96;62.05;101151.34;4985697;28;20562;-74
2023/05/02 10:06:51;;;;;;;1.48;0.28;;;;;;;8.01;61.78;101145.28;4985743;28;20058;-74
2023/05/02 10:09:20;;;;;;;0.30;0.20;;;;;;;8.06;61.96;101151.34;4986664;28;20054;-74
2023/05/02 10:11:49;;;;;;;0.60;0.30;;;;;;;8.14;62.01;101143.53;4987252;28;20100;-74
2023/05/02 10:14:19;;;;;;;0.20;0.20;;;;;;;8.24;61.98;101154.75;4984973;28;20061;-74
2023/05/02 10:16:55;;;;;;;0.70;0.30;;;;;;;8.31;61.42;101146.94;4985060;28;20046;-74
2023/05/02 10:19:27;;;;;;;5.75;0.20;;;;;;;8.41;61.55;101152.13;4987194;28;20139;-74
2023/05/02 10:21:56;;;;;;;1.45;0.30;;;;;;;8.47;60.20;101146.91;4986737;28;20053;-74
2023/05/02 10:24:25;;;;;;;2.53;0.30;;;;;;;8.54;60.22;101146.88;4986058;28;20047;-75
2023/05/02 10:26:53;;;;;;;1.38;0.30;;;;;;;8.61;59.89;101150.31;4985825;28;20057;-75
2023/05/02 10:29:20;;;;;;;0.60;0.20;;;;;;;8.65;60.38;101151.16;4986469;28;20046;-74
2023/05/02 10:31:49;;;;;;;1.52;0.20;;;;;;;8.70;60.02;101159.81;4986211;28;20051;-75
2023/05/02 10:34:18;;;;;;;2.85;0.20;;;;;;;8.74;59.38;101159.81;4987734;28;20125;-74
2023/05/02 10:36:46;;;;;;;0.68;0.30;;;;;;;8.81;56.98;101154.56;4983030;28;20050;-74
2023/05/02 10:39:13;;;;;;;0.30;0.20;;;;;;;8.86;57.26;101160.63;4982036;28;20062;-74
2023/05/02 10:41:43;;;;;;;1.95;0.20;;;;;;;8.90;57.79;101162.34;4981190;28;20058;-74
2023/05/02 10:44:10;;;;;;;2.75;0.52;;;;;;;8.95;56.81;101165.78;4986911;28;20050;-74
2023/05/02 10:46:39;;;;;;;2.88;0.20;;;;;;;8.99;57.88;101162.28;4986909;28;20050;-75
2023/05/02 10:49:07;;;;;;;1.35;0.30;;;;;;;9.03;57.63;101168.34;4989232;28;20046;-74
2023/05/02 10:51:35;;;;;;;0.82;0.52;;;;;;;9.06;58.15;101171.81;4984368;28;20062;-74
2023/05/02 10:54:22;;;;;;;0.82;0.20;;;;;;;9.11;57.98;101167.44;4988575;28;20053;-74
2023/05/02 10:57:08;;;;;;;2.38;0.30;;;;;;;9.15;57.70;101173.47;4990217;28;20058;-75
2023/05/02 10:59:36;;;;;;;1.35;0.20;;;;;;;9.18;57.90;101174.31;4987092;28;20042;-74
2023/05/02 11:02:04;;;;;;;0.57;0.20;;;;;;;9.22;57.67;101181.25;4988571;28;20164;-74
2023/05/02 11:04:59;;;;;;;1.20;0.28;;;;;;;9.29;57.15;101183.81;4989016;28;20054;-74
2023/05/02 11:07:26;;;;;;;0.75;0.15;;;;;;;9.30;57.69;101198.59;4989683;28;20093;-74
2023/05/02 11:09:53;;;;;;;1.05;0.20;;;;;;;9.34;57.14;101202.91;4985031;28;20046;-75
2023/05/02 11:12:47;;;;;;;0.35;0.20;;;;;;;9.38;57.09;101191.56;4989268;28;20470;-76
2023/05/02 11:15:14;;;;;;;0.90;0.20;;;;;;;9.40;57.20;101195.06;4986618;28;20108;-74
2023/05/02 11:18:01;;;;;;;0.80;0.15;;;;;;;9.46;56.62;101200.22;4987900;28;20049;-75
2023/05/02 11:20:28;;;;;;;1.45;0.30;;;;;;;9.50;56.57;101201.06;4988231;28;20109;-75
2023/05/02 11:23:20;;;;;;;0.47;0.20;;;;;;;9.53;57.16;101201.88;4988733;28;20058;-76
2023/05/02 11:25:48;;;;;;;1.25;0.20;;;;;;;9.60;56.47;101210.56;4987632;28;20058;-74
2023/05/02 11:28:43;;;;;;;0.77;0.20;;;;;;;9.65;56.82;101227.91;4990309;28;20614;-75
2023/05/02 11:31:30;;;;;;;0.60;0.20;;;;;;;9.69;56.33;101233.94;4987571;28;20073;-75
2023/05/02 11:33:58;;;;;;;0.40;0.20;;;;;;;9.74;56.31;101249.59;4986991;28;20069;-75
2023/05/02 11:36:29;;;;;;;2.70;0.30;;;;;;;9.73;56.71;101255.66;4989232;28;20062;-75
2023/05/02 11:38:56;;;;;;;2.15;0.30;;;;;;;9.71;56.96;101262.66;4986963;28;20108;-74
2023/05/02 11:41:23;;;;;;;2.60;0.20;;;;;;;9.68;56.48;101256.56;4988316;28;20061;-75
2023/05/02 11:44:02;;;;;;;0.57;0.20;;;;;;;9.68;56.67;101248.75;4986489;28;20046;-74